N8CA PHLI-ZZZZ

Flight info

Callsign N8CA
Flight time N/A
Altitude 2500
Route DCT
Aircraft C208/L-V/N

Departure

Time 2026-05-06 15:58
Airport Lihue Airport (PHLI)

Arrival

Time N/A
Airport ZZZZ
Time Latitude Longitude Altitude Speed Heading
2026-05-06 15:44 21.98542 -159.33952 99 ft 0 kts 318°
2026-05-06 15:55 21.98534 -159.33952 99 ft 7 kts 123°
2026-05-06 15:55 21.98476 -159.33880 99 ft 18 kts 132°
2026-05-06 15:55 21.98476 -159.33779 97 ft 18 kts 44°
2026-05-06 15:55 21.98595 -159.33650 91 ft 24 kts 51°
2026-05-06 15:56 21.98569 -159.33564 92 ft 20 kts 139°
2026-05-06 15:56 21.98511 -159.33575 91 ft 0 kts 224°
2026-05-06 15:56 21.98510 -159.33576 90 ft 5 kts 224°
2026-05-06 15:57 21.98359 -159.33742 99 ft 56 kts 224°
2026-05-06 15:57 21.98008 -159.34100 217 ft 75 kts 220°
2026-05-06 15:57 21.97596 -159.34500 390 ft 84 kts 223°
2026-05-06 15:57 21.97136 -159.34933 573 ft 94 kts 221°
2026-05-06 15:58 21.96592 -159.35366 821 ft 101 kts 209°
2026-05-06 15:58 21.95871 -159.35535 1029 ft 112 kts 179°
2026-05-06 15:58 21.95351 -159.35499 1180 ft 115 kts 172°
2026-05-06 15:58 21.94549 -159.35391 1429 ft 118 kts 172°
2026-05-06 15:59 21.93486 -159.35628 1764 ft 124 kts 208°
2026-05-06 15:59 21.92769 -159.36141 1988 ft 122 kts 218°
2026-05-06 15:59 21.92189 -159.36775 2250 ft 118 kts 232°
2026-05-06 15:59 21.91703 -159.37495 2452 ft 121 kts 237°
2026-05-06 16:00 21.91407 -159.38008 2547 ft 126 kts 241°
2026-05-06 16:00 21.90902 -159.38857 2575 ft 140 kts 237°
2026-05-06 16:00 21.90340 -159.39740 2678 ft 145 kts 237°
2026-05-06 16:00 21.89788 -159.40694 2625 ft 156 kts 239°
2026-05-06 16:01 21.89202 -159.41697 2595 ft 160 kts 243°
2026-05-06 16:01 21.88832 -159.42831 2523 ft 164 kts 263°
2026-05-06 16:01 21.88743 -159.44052 2515 ft 163 kts 266°
2026-05-06 16:01 21.88658 -159.45261 2517 ft 162 kts 266°
2026-05-06 16:02 21.88545 -159.46451 2496 ft 163 kts 264°
2026-05-06 16:02 21.88425 -159.47663 2462 ft 163 kts 269°
2026-05-06 16:02 21.88513 -159.48868 2480 ft 161 kts 278°
2026-05-06 16:02 21.88713 -159.50054 2452 ft 162 kts 283°
2026-05-06 16:03 21.88907 -159.51245 2382 ft 161 kts 280°
2026-05-06 16:03 21.89099 -159.52443 2181 ft 165 kts 282°
2026-05-06 16:03 21.89293 -159.53660 2069 ft 163 kts 279°
2026-05-06 16:03 21.89482 -159.54852 1963 ft 161 kts 283°
2026-05-06 16:04 21.89771 -159.56014 1753 ft 160 kts 289°
2026-05-06 16:04 21.90129 -159.57121 1499 ft 154 kts 290°
2026-05-06 16:04 21.90469 -159.58164 1221 ft 144 kts 290°
2026-05-06 16:04 21.90737 -159.59193 946 ft 141 kts 283°
2026-05-06 16:05 21.90890 -159.60192 852 ft 130 kts 280°
2026-05-06 16:05 21.90981 -159.61081 878 ft 116 kts 274°
2026-05-06 16:05 21.91041 -159.61932 948 ft 113 kts 270°
2026-05-06 16:05 21.90595 -159.62582 867 ft 118 kts 200°
2026-05-06 16:06 21.89775 -159.62677 694 ft 120 kts 150°
2026-05-06 16:06 21.89402 -159.61956 466 ft 120 kts 82°
2026-05-06 16:06 21.89636 -159.61133 418 ft 116 kts 76°
2026-05-06 16:06 21.89534 -159.60281 522 ft 116 kts 105°
2026-05-06 16:07 21.89366 -159.59479 750 ft 105 kts 96°
2026-05-06 16:07 21.89291 -159.58731 958 ft 97 kts 78°
2026-05-06 16:07 21.89758 -159.58243 1031 ft 103 kts 14°
2026-05-06 16:07 21.90470 -159.58066 1081 ft 106 kts
2026-05-06 16:08 21.91033 -159.58531 1049 ft 116 kts 288°
2026-05-06 16:08 21.91143 -159.59393 1078 ft 115 kts 277°
2026-05-06 16:08 21.91231 -159.60234 1115 ft 114 kts 278°
2026-05-06 16:08 21.91336 -159.61080 1144 ft 114 kts 279°
2026-05-06 16:09 21.91441 -159.61928 1167 ft 114 kts 272°
2026-05-06 16:09 21.90984 -159.62610 955 ft 126 kts 201°
2026-05-06 16:09 21.90131 -159.62674 779 ft 126 kts 155°
2026-05-06 16:09 21.89722 -159.61933 415 ft 120 kts 79°
2026-05-06 16:10 21.89794 -159.61141 216 ft 95 kts 89°
2026-05-06 16:10 21.89718 -159.60496 35 ft 76 kts 97°
2026-05-06 16:10 21.89669 -159.60191 30 ft 5 kts 91°
2026-05-06 16:10 21.89685 -159.60263 30 ft 27 kts 278°
2026-05-06 16:11 21.89720 -159.60494 33 ft 30 kts 277°
2026-05-06 16:11 21.89709 -159.60563 35 ft 0 kts 315°
2026-05-06 16:11 21.89710 -159.60564 35 ft 2 kts 317°
2026-05-06 16:12 21.89760 -159.60658 33 ft 12 kts 246°
2026-05-06 16:12 21.89740 -159.60651 32 ft 0 kts 99°
2026-05-06 16:12 21.89735 -159.60615 33 ft 24 kts 99°
2026-05-06 16:12 21.89681 -159.60237 31 ft 75 kts 98°
2026-05-06 16:13 21.89599 -159.59657 243 ft 78 kts 94°
2026-05-06 16:13 21.89526 -159.59076 464 ft 80 kts 96°
2026-05-06 16:13 21.89431 -159.58482 665 ft 82 kts 97°
2026-05-06 16:13 21.89697 -159.57950 774 ft 94 kts 17°
2026-05-06 16:14 21.90352 -159.57860 1037 ft 93 kts 354°
2026-05-06 16:14 21.90817 -159.58397 1038 ft 122 kts 278°
2026-05-06 16:14 21.90924 -159.59347 1168 ft 131 kts 276°
2026-05-06 16:14 21.91003 -159.60328 1357 ft 132 kts 276°
2026-05-06 16:15 21.91291 -159.61232 1564 ft 128 kts 314°
2026-05-06 16:15 21.91921 -159.61890 1779 ft 128 kts 316°
2026-05-06 16:15 21.92551 -159.62573 1978 ft 129 kts 315°
2026-05-06 16:15 21.93182 -159.63260 2180 ft 129 kts 312°
2026-05-06 16:16 21.93607 -159.64120 2382 ft 131 kts 294°
2026-05-06 16:16 21.93988 -159.65028 2490 ft 138 kts 295°
2026-05-06 16:16 21.94408 -159.66010 2512 ft 149 kts 295°
2026-05-06 16:16 21.94912 -159.66989 2644 ft 148 kts 304°
2026-05-06 16:17 21.95442 -159.67961 2594 ft 160 kts 291°
2026-05-06 16:17 21.95723 -159.69163 2394 ft 171 kts 283°
2026-05-06 16:17 21.95965 -159.70378 2252 ft 164 kts 284°
2026-05-06 16:17 21.96189 -159.71590 1950 ft 167 kts 280°
2026-05-06 16:18 21.96389 -159.72818 1690 ft 165 kts 283°
2026-05-06 16:18 21.96720 -159.73963 1409 ft 157 kts 295°
2026-05-06 16:18 21.97219 -159.74991 1087 ft 152 kts 305°
2026-05-06 16:18 21.97791 -159.75834 986 ft 128 kts 309°
2026-05-06 16:19 21.98348 -159.76513 969 ft 117 kts 316°
2026-05-06 16:19 21.98929 -159.77120 914 ft 110 kts 316°
2026-05-06 16:19 21.99490 -159.77633 832 ft 104 kts 324°
2026-05-06 16:19 22.00065 -159.78029 613 ft 93 kts 339°
2026-05-06 16:20 22.00673 -159.78216 404 ft 87 kts 350°
2026-05-06 16:20 22.01223 -159.78311 230 ft 75 kts 352°
2026-05-06 16:20 22.01707 -159.78400 87 ft 66 kts 352°
2026-05-06 16:20 22.02112 -159.78478 25 ft 51 kts 349°
2026-05-06 16:21 22.02384 -159.78527 26 ft 33 kts 351°
2026-05-06 16:21 22.02496 -159.78506 27 ft 9 kts 107°
2026-05-06 16:21 22.02425 -159.78449 26 ft 18 kts 150°
2026-05-06 16:21 22.02282 -159.78396 26 ft 25 kts 179°
2026-05-06 16:22 22.02087 -159.78382 26 ft 31 kts 169°
2026-05-06 16:22 22.01865 -159.78331 25 ft 29 kts 169°
2026-05-06 16:22 22.01771 -159.78332 25 ft 0 kts 262°
2026-05-06 16:22 22.01771 -159.78333 25 ft 1 kts 262°
2026-05-06 16:23 22.01766 -159.78403 25 ft 10 kts 302°
2026-05-06 16:23 22.01817 -159.78418 25 ft 15 kts 349°
2026-05-06 16:23 22.02094 -159.78470 24 ft 66 kts 351°
2026-05-06 16:23 22.02619 -159.78584 156 ft 83 kts 349°
2026-05-06 16:24 22.03177 -159.78713 406 ft 82 kts 346°
2026-05-06 16:24 22.03778 -159.78873 610 ft 93 kts 349°
2026-05-06 16:24 22.04420 -159.78902 867 ft 95 kts 11°
2026-05-06 16:24 22.05041 -159.78624 1116 ft 96 kts 28°
2026-05-06 16:25 22.05602 -159.78289 1440 ft 91 kts 27°
2026-05-06 16:25 22.06199 -159.77983 1651 ft 97 kts 28°
2026-05-06 16:25 22.06719 -159.77525 1925 ft 95 kts 45°
2026-05-06 16:25 22.07113 -159.76968 2210 ft 92 kts 55°
2026-05-06 16:26 22.07459 -159.76378 2457 ft 95 kts 54°
2026-05-06 16:26 22.07848 -159.75709 2497 ft 119 kts 56°
2026-05-06 16:26 22.08336 -159.74899 2511 ft 138 kts 51°
2026-05-06 16:26 22.08947 -159.74091 2686 ft 135 kts 48°
2026-05-06 16:27 22.09534 -159.73335 2956 ft 128 kts 47°
2026-05-06 16:27 22.10136 -159.72689 3243 ft 120 kts 39°
2026-05-06 16:27 22.10756 -159.72109 3522 ft 117 kts 40°
2026-05-06 16:27 22.11376 -159.71552 3809 ft 115 kts 34°
2026-05-06 16:28 22.12017 -159.71045 4089 ft 114 kts 34°
2026-05-06 16:28 22.12640 -159.70546 4350 ft 114 kts 34°
2026-05-06 16:28 22.13303 -159.70063 4610 ft 115 kts 29°
2026-05-06 16:28 22.13982 -159.69612 4858 ft 115 kts 30°
2026-05-06 16:29 22.14667 -159.69158 5102 ft 116 kts 29°
2026-05-06 16:29 22.15275 -159.68581 5309 ft 117 kts 44°
2026-05-06 16:29 22.15874 -159.67960 5489 ft 126 kts 42°
2026-05-06 16:29 22.16554 -159.67260 5507 ft 144 kts 42°
2026-05-06 16:30 22.17287 -159.66455 5510 ft 156 kts 51°
2026-05-06 16:30 22.17712 -159.65814 5512 ft 161 kts 56°
2026-05-06 16:30 22.18541 -159.64441 5503 ft 168 kts 57°
2026-05-06 16:30 22.19182 -159.63382 5505 ft 170 kts 57°
2026-05-06 16:31 22.19829 -159.62311 5510 ft 171 kts 57°
2026-05-06 16:31 22.20479 -159.61233 5503 ft 172 kts 57°
2026-05-06 16:31 22.21130 -159.60157 5505 ft 172 kts 57°
2026-05-06 16:31 22.21784 -159.59074 5502 ft 172 kts 57°
2026-05-06 16:32 22.22273 -159.57908 5493 ft 172 kts 80°
2026-05-06 16:32 22.22432 -159.56720 5068 ft 160 kts 83°
2026-05-06 16:32 22.22586 -159.55486 4113 ft 173 kts 83°
2026-05-06 16:32 22.22501 -159.54211 3357 ft 169 kts 101°
2026-05-06 16:33 22.22382 -159.52976 2589 ft 164 kts 85°
2026-05-06 16:33 22.22543 -159.51766 1880 ft 160 kts 79°
2026-05-06 16:33 22.22715 -159.50704 1787 ft 128 kts 79°
2026-05-06 16:34 22.23007 -159.48932 1815 ft 122 kts 78°
2026-05-06 16:34 22.23156 -159.48021 1809 ft 124 kts 78°
2026-05-06 16:34 22.23226 -159.47094 1807 ft 125 kts 94°
2026-05-06 16:34 22.22870 -159.46247 1794 ft 128 kts 131°
2026-05-06 16:35 22.22249 -159.45577 1800 ft 128 kts 138°
2026-05-06 16:35 22.21546 -159.44981 1805 ft 128 kts 139°
2026-05-06 16:35 22.20807 -159.44434 1801 ft 130 kts 148°
2026-05-06 16:35 22.20035 -159.43940 1801 ft 127 kts 147°
2026-05-06 16:36 22.19228 -159.43668 1757 ft 124 kts 189°
2026-05-06 16:36 22.18602 -159.44232 1692 ft 123 kts 251°
2026-05-06 16:36 22.18803 -159.45078 1535 ft 126 kts 322°
2026-05-06 16:36 22.19608 -159.45099 1420 ft 123 kts 36°
2026-05-06 16:37 22.19893 -159.44284 1346 ft 121 kts 85°
2026-05-06 16:37 22.19959 -159.43391 1303 ft 119 kts 79°
2026-05-06 16:37 22.20293 -159.42583 1264 ft 117 kts 57°
2026-05-06 16:37 22.20730 -159.41879 1300 ft 111 kts 37°
2026-05-06 16:38 22.21483 -159.41912 1144 ft 123 kts 329°
2026-05-06 16:38 22.21941 -159.42538 1055 ft 109 kts 267°
2026-05-06 16:38 22.21733 -159.43252 808 ft 92 kts 239°
2026-05-06 16:38 22.21395 -159.43781 576 ft 82 kts 236°
2026-05-06 16:39 22.21106 -159.44257 377 ft 69 kts 242°
2026-05-06 16:39 22.20867 -159.44614 361 ft 40 kts 236°
2026-05-06 16:39 22.20800 -159.44730 373 ft 2 kts 290°
2026-05-06 16:39 22.20848 -159.44659 365 ft 26 kts 55°
2026-05-06 16:40 22.20967 -159.44457 348 ft 37 kts 57°
2026-05-06 16:40 22.21109 -159.44308 329 ft 16 kts 15°
2026-05-06 16:40 22.21165 -159.44229 321 ft 11 kts 66°
2026-05-06 16:40 22.21171 -159.44194 319 ft 0 kts 106°
2026-05-06 16:41 22.21161 -159.44167 318 ft 10 kts 106°
2026-05-06 16:41 22.21190 -159.44099 312 ft 7 kts 299°
2026-05-06 16:42 22.21188 -159.44105 312 ft 0 kts 235°
2026-05-06 16:42 22.21118 -159.44216 322 ft 43 kts 237°
2026-05-06 16:42 22.20873 -159.44610 391 ft 76 kts 236°
2026-05-06 16:43 22.20593 -159.45087 635 ft 74 kts 239°
2026-05-06 16:43 22.20315 -159.45596 797 ft 86 kts 237°
2026-05-06 16:43 22.19784 -159.45862 973 ft 92 kts 165°
2026-05-06 16:43 22.19260 -159.45522 1231 ft 90 kts 136°
2026-05-06 16:44 22.19227 -159.44882 1341 ft 102 kts 57°
2026-05-06 16:44 22.19653 -159.44174 1381 ft 124 kts 58°
2026-05-06 16:44 22.20133 -159.43347 1454 ft 133 kts 58°
2026-05-06 16:44 22.20432 -159.42446 1694 ft 128 kts 91°
2026-05-06 16:45 22.20367 -159.41506 1948 ft 124 kts 92°
2026-05-06 16:45 22.20243 -159.40601 2170 ft 123 kts 117°
2026-05-06 16:45 22.19556 -159.40106 2437 ft 119 kts 157°
2026-05-06 16:45 22.18759 -159.39960 2564 ft 130 kts 194°
2026-05-06 16:46 22.17941 -159.40529 2512 ft 148 kts 221°
2026-05-06 16:46 22.17250 -159.41380 2539 ft 153 kts 229°
2026-05-06 16:46 22.16555 -159.42272 2573 ft 156 kts 230°
2026-05-06 16:46 22.15902 -159.43217 2556 ft 161 kts 236°
2026-05-06 16:47 22.15255 -159.44220 2520 ft 162 kts 234°
2026-05-06 16:47 22.14558 -159.45165 2566 ft 161 kts 226°
2026-05-06 16:47 22.13675 -159.45902 2558 ft 162 kts 205°
2026-05-06 16:47 22.12613 -159.46245 2535 ft 162 kts 188°
2026-05-06 16:48 22.11510 -159.46416 2576 ft 158 kts 184°
2026-05-06 16:48 22.10405 -159.46425 2552 ft 161 kts 175°
2026-05-06 16:48 22.09302 -159.46243 2541 ft 161 kts 163°
2026-05-06 16:48 22.08277 -159.45794 2499 ft 158 kts 156°
2026-05-06 16:49 22.07258 -159.45324 2381 ft 160 kts 154°
2026-05-06 16:49 22.06233 -159.44879 2238 ft 159 kts 159°
2026-05-06 16:49 22.05151 -159.44590 2052 ft 161 kts 170°
2026-05-06 16:49 22.04067 -159.44385 1924 ft 159 kts 166°
2026-05-06 16:50 22.03075 -159.43926 1741 ft 159 kts 133°
2026-05-06 16:50 22.02798 -159.42812 1418 ft 164 kts 73°
2026-05-06 16:50 22.03260 -159.41714 1238 ft 155 kts 68°
2026-05-06 16:50 22.03501 -159.40653 878 ft 140 kts 82°
2026-05-06 16:51 22.03649 -159.39696 719 ft 115 kts 78°
2026-05-06 16:51 22.03817 -159.38876 894 ft 103 kts 75°
2026-05-06 16:51 22.04053 -159.38206 1152 ft 98 kts 40°
2026-05-06 16:51 22.04706 -159.38130 1384 ft 97 kts 347°
2026-05-06 16:52 22.05394 -159.38372 1389 ft 109 kts 323°
2026-05-06 16:52 22.05563 -159.39147 1342 ft 118 kts 256°
2026-05-06 16:52 22.05353 -159.40018 1380 ft 121 kts 255°
2026-05-06 16:52 22.05167 -159.40899 1431 ft 117 kts 257°
2026-05-06 16:53 22.04988 -159.41709 1439 ft 107 kts 255°
2026-05-06 16:53 22.04436 -159.42174 1308 ft 109 kts 181°
2026-05-06 16:53 22.03737 -159.41931 1227 ft 104 kts 145°
2026-05-06 16:53 22.03449 -159.41243 1005 ft 98 kts 92°
2026-05-06 16:54 22.03548 -159.40608 688 ft 80 kts 97°
2026-05-06 16:54 22.03666 -159.40052 431 ft 73 kts 85°
2026-05-06 16:54 22.03772 -159.39583 354 ft 67 kts 70°
2026-05-06 16:54 22.03862 -159.39028 445 ft 76 kts 77°
2026-05-06 16:55 22.03995 -159.38474 592 ft 82 kts 57°
2026-05-06 16:55 22.04326 -159.37958 820 ft 82 kts 29°
2026-05-06 16:55 22.04867 -159.37985 1066 ft 83 kts 344°
2026-05-06 16:55 22.05387 -159.38234 1334 ft 87 kts 304°
2026-05-06 16:56 22.05307 -159.38943 1334 ft 114 kts 248°
2026-05-06 16:56 22.05104 -159.39837 1358 ft 126 kts 261°
2026-05-06 16:56 22.04954 -159.40760 1363 ft 127 kts 259°
2026-05-06 16:56 22.04778 -159.41695 1362 ft 126 kts 258°
2026-05-06 16:57 22.04597 -159.42623 1362 ft 127 kts 255°
2026-05-06 16:57 22.03968 -159.43046 1295 ft 104 kts 165°
2026-05-06 16:57 22.03478 -159.42630 1068 ft 93 kts 104°
2026-05-06 16:57 22.03544 -159.41986 925 ft 81 kts 78°
2026-05-06 16:58 22.03493 -159.41386 845 ft 81 kts 91°
2026-05-06 16:58 22.03510 -159.40803 682 ft 79 kts 79°
2026-05-06 16:58 22.03622 -159.40239 480 ft 75 kts 71°
2026-05-06 16:58 22.03733 -159.39748 417 ft 47 kts 78°
2026-05-06 16:59 22.03750 -159.39658 357 ft 0 kts 79°